sensor_id;sensor_type;location;lat;lon;timestamp;P1;durP1;ratioP1;P2;durP2;ratioP2
69917;SDS011;57203;42.672;23.334;2023-07-28T00:01:32;3.3;;;3.2;;
69917;SDS011;57203;42.672;23.334;2023-07-28T00:03:32;4.7;;;3.6;;
69917;SDS011;57203;42.672;23.334;2023-07-28T00:04:33;4.7;;;3.4;;
69917;SDS011;57203;42.672;23.334;2023-07-28T00:05:33;5.0;;;3.2;;
69917;SDS011;57203;42.672;23.334;2023-07-28T00:06:33;3.9;;;3.5;;
69917;SDS011;57203;42.672;23.334;2023-07-28T00:07:33;3.9;;;3.4;;
69917;SDS011;57203;42.672;23.334;2023-07-28T00:08:33;6.1;;;3.7;;
69917;SDS011;57203;42.672;23.334;2023-07-28T00:09:33;4.2;;;4.1;;
69917;SDS011;57203;42.672;23.334;2023-07-28T00:10:33;4.6;;;3.9;;
69917;SDS011;57203;42.672;23.334;2023-07-28T00:12:34;4.6;;;3.8;;
69917;SDS011;57203;42.672;23.334;2023-07-28T00:13:34;4.6;;;3.5;;
69917;SDS011;57203;42.672;23.334;2023-07-28T00:14:35;6.4;;;3.8;;
69917;SDS011;57203;42.672;23.334;2023-07-28T00:15:35;6.4;;;3.9;;
69917;SDS011;57203;42.672;23.334;2023-07-28T00:17:35;4.5;;;3.3;;
69917;SDS011;57203;42.672;23.334;2023-07-28T00:18:35;3.7;;;4.0;;
69917;SDS011;57203;42.672;23.334;2023-07-28T00:19:36;5.4;;;3.8;;
69917;SDS011;57203;42.672;23.334;2023-07-28T00:20:36;4.2;;;3.6;;
69917;SDS011;57203;42.672;23.334;2023-07-28T00:22:36;4.4;;;4.1;;
69917;SDS011;57203;42.672;23.334;2023-07-28T00:23:36;5.0;;;4.0;;
69917;SDS011;57203;42.672;23.334;2023-07-28T00:25:37;4.4;;;4.3;;
69917;SDS011;57203;42.672;23.334;2023-07-28T00:26:37;5.5;;;4.6;;
69917;SDS011;57203;42.672;23.334;2023-07-28T00:27:37;5.2;;;3.9;;
69917;SDS011;57203;42.672;23.334;2023-07-28T00:28:38;5.6;;;4.7;;
69917;SDS011;57203;42.672;23.334;2023-07-28T00:29:38;5.7;;;4.4;;
69917;SDS011;57203;42.672;23.334;2023-07-28T00:30:38;6.3;;;4.3;;
69917;SDS011;57203;42.672;23.334;2023-07-28T00:31:38;6.3;;;4.6;;
69917;SDS011;57203;42.672;23.334;2023-07-28T00:32:39;5.2;;;3.7;;
69917;SDS011;57203;42.672;23.334;2023-07-28T00:33:39;5.6;;;4.3;;
69917;SDS011;57203;42.672;23.334;2023-07-28T00:34:39;5.6;;;5.0;;
69917;SDS011;57203;42.672;23.334;2023-07-28T00:35:39;5.5;;;4.4;;
69917;SDS011;57203;42.672;23.334;2023-07-28T00:38:40;5.0;;;4.5;;
69917;SDS011;57203;42.672;23.334;2023-07-28T00:39:40;6.6;;;5.0;;
69917;SDS011;57203;42.672;23.334;2023-07-28T00:40:40;7.1;;;4.7;;
69917;SDS011;57203;42.672;23.334;2023-07-28T00:41:41;5.2;;;4.3;;
69917;SDS011;57203;42.672;23.334;2023-07-28T00:42:41;5.9;;;4.5;;
69917;SDS011;57203;42.672;23.334;2023-07-28T00:43:41;5.1;;;4.6;;
69917;SDS011;57203;42.672;23.334;2023-07-28T00:44:41;5.1;;;4.8;;
69917;SDS011;57203;42.672;23.334;2023-07-28T00:45:42;4.9;;;4.4;;
69917;SDS011;57203;42.672;23.334;2023-07-28T00:46:42;4.9;;;4.7;;
69917;SDS011;57203;42.672;23.334;2023-07-28T00:49:42;6.1;;;5.1;;
69917;SDS011;57203;42.672;23.334;2023-07-28T00:50:43;6.3;;;4.5;;
69917;SDS011;57203;42.672;23.334;2023-07-28T00:51:43;5.9;;;4.6;;
69917;SDS011;57203;42.672;23.334;2023-07-28T00:52:43;5.9;;;4.8;;
69917;SDS011;57203;42.672;23.334;2023-07-28T00:53:43;7.6;;;5.0;;
69917;SDS011;57203;42.672;23.334;2023-07-28T00:54:44;8.8;;;4.5;;
69917;SDS011;57203;42.672;23.334;2023-07-28T00:55:44;5.0;;;4.6;;
69917;SDS011;57203;42.672;23.334;2023-07-28T00:57:44;5.7;;;4.0;;
69917;SDS011;57203;42.672;23.334;2023-07-28T00:58:44;5.8;;;4.3;;
69917;SDS011;57203;42.672;23.334;2023-07-28T00:59:45;5.2;;;4.4;;
69917;SDS011;57203;42.672;23.334;2023-07-28T01:00:45;5.7;;;4.7;;
69917;SDS011;57203;42.672;23.334;2023-07-28T01:01:45;5.2;;;4.1;;
69917;SDS011;57203;42.672;23.334;2023-07-28T01:02:45;4.5;;;4.3;;
69917;SDS011;57203;42.672;23.334;2023-07-28T01:04:46;5.1;;;4.6;;
69917;SDS011;57203;42.672;23.334;2023-07-28T01:05:48;5.1;;;4.7;;
69917;SDS011;57203;42.672;23.334;2023-07-28T01:06:47;5.4;;;4.9;;
69917;SDS011;57203;42.672;23.334;2023-07-28T01:07:47;5.4;;;4.6;;
69917;SDS011;57203;42.672;23.334;2023-07-28T01:08:48;5.3;;;4.5;;
69917;SDS011;57203;42.672;23.334;2023-07-28T01:09:50;6.3;;;4.8;;
69917;SDS011;57203;42.672;23.334;2023-07-28T01:10:47;5.6;;;4.3;;
69917;SDS011;57203;42.672;23.334;2023-07-28T01:11:55;4.7;;;4.8;;
69917;SDS011;57203;42.672;23.334;2023-07-28T01:12:48;6.1;;;4.4;;
69917;SDS011;57203;42.672;23.334;2023-07-28T01:13:48;4.8;;;4.8;;
69917;SDS011;57203;42.672;23.334;2023-07-28T01:14:48;5.3;;;4.6;;
69917;SDS011;57203;42.672;23.334;2023-07-28T01:15:48;6.3;;;4.5;;
69917;SDS011;57203;42.672;23.334;2023-07-28T01:16:48;4.9;;;5.0;;
69917;SDS011;57203;42.672;23.334;2023-07-28T01:17:49;5.5;;;4.9;;
69917;SDS011;57203;42.672;23.334;2023-07-28T01:18:49;5.5;;;4.4;;
69917;SDS011;57203;42.672;23.334;2023-07-28T01:19:49;4.9;;;4.7;;
69917;SDS011;57203;42.672;23.334;2023-07-28T01:20:49;5.1;;;4.9;;
69917;SDS011;57203;42.672;23.334;2023-07-28T01:21:53;5.7;;;4.6;;
69917;SDS011;57203;42.672;23.334;2023-07-28T01:23:52;5.0;;;4.8;;
69917;SDS011;57203;42.672;23.334;2023-07-28T01:24:51;5.3;;;5.0;;
69917;SDS011;57203;42.672;23.334;2023-07-28T01:25:54;5.6;;;4.8;;
69917;SDS011;57203;42.672;23.334;2023-07-28T01:26:51;5.8;;;5.0;;
69917;SDS011;57203;42.672;23.334;2023-07-28T01:27:51;5.9;;;4.8;;
69917;SDS011;57203;42.672;23.334;2023-07-28T01:28:51;5.9;;;4.9;;
69917;SDS011;57203;42.672;23.334;2023-07-28T01:29:51;5.4;;;5.1;;
69917;SDS011;57203;42.672;23.334;2023-07-28T01:31:52;5.7;;;5.3;;
69917;SDS011;57203;42.672;23.334;2023-07-28T01:32:53;5.9;;;5.5;;
69917;SDS011;57203;42.672;23.334;2023-07-28T01:33:52;6.0;;;4.9;;
69917;SDS011;57203;42.672;23.334;2023-07-28T01:34:53;5.4;;;4.7;;
69917;SDS011;57203;42.672;23.334;2023-07-28T01:35:53;5.2;;;4.9;;
69917;SDS011;57203;42.672;23.334;2023-07-28T01:36:53;5.5;;;5.9;;
69917;SDS011;57203;42.672;23.334;2023-07-28T01:37:53;7.1;;;4.9;;
69917;SDS011;57203;42.672;23.334;2023-07-28T01:39:54;5.5;;;4.6;;
69917;SDS011;57203;42.672;23.334;2023-07-28T01:40:54;6.3;;;4.9;;
69917;SDS011;57203;42.672;23.334;2023-07-28T01:41:54;6.1;;;5.5;;
69917;SDS011;57203;42.672;23.334;2023-07-28T01:42:54;8.5;;;5.2;;
69917;SDS011;57203;42.672;23.334;2023-07-28T01:44:55;5.8;;;4.9;;
69917;SDS011;57203;42.672;23.334;2023-07-28T01:45:55;6.1;;;5.1;;
69917;SDS011;57203;42.672;23.334;2023-07-28T01:46:55;6.1;;;5.0;;
69917;SDS011;57203;42.672;23.334;2023-07-28T01:47:55;6.3;;;5.2;;
69917;SDS011;57203;42.672;23.334;2023-07-28T01:48:56;6.3;;;6.0;;
69917;SDS011;57203;42.672;23.334;2023-07-28T01:49:56;6.6;;;4.9;;
69917;SDS011;57203;42.672;23.334;2023-07-28T01:50:56;6.3;;;5.1;;
69917;SDS011;57203;42.672;23.334;2023-07-28T01:51:56;5.6;;;4.5;;
69917;SDS011;57203;42.672;23.334;2023-07-28T01:52:57;5.0;;;5.8;;
69917;SDS011;57203;42.672;23.334;2023-07-28T01:53:57;6.2;;;5.6;;
69917;SDS011;57203;42.672;23.334;2023-07-28T01:54:57;5.6;;;4.8;;
69917;SDS011;57203;42.672;23.334;2023-07-28T01:55:57;5.6;;;5.2;;
69917;SDS011;57203;42.672;23.334;2023-07-28T01:56:57;6.0;;;5.5;;
69917;SDS011;57203;42.672;23.334;2023-07-28T01:57:59;8.3;;;5.3;;
69917;SDS011;57203;42.672;23.334;2023-07-28T01:58:58;8.3;;;5.0;;
69917;SDS011;57203;42.672;23.334;2023-07-28T01:59:58;5.6;;;5.3;;
69917;SDS011;57203;42.672;23.334;2023-07-28T02:00:58;6.0;;;5.4;;
69917;SDS011;57203;42.672;23.334;2023-07-28T02:01:58;8.5;;;4.8;;
69917;SDS011;57203;42.672;23.334;2023-07-28T02:06:00;5.5;;;4.2;;
69917;SDS011;57203;42.672;23.334;2023-07-28T02:07:00;4.8;;;4.4;;
69917;SDS011;57203;42.672;23.334;2023-07-28T02:08:00;4.8;;;4.5;;
69917;SDS011;57203;42.672;23.334;2023-07-28T02:09:00;5.0;;;4.1;;
69917;SDS011;57203;42.672;23.334;2023-07-28T02:11:01;7.5;;;3.8;;
69917;SDS011;57203;42.672;23.334;2023-07-28T02:12:01;4.8;;;4.2;;
69917;SDS011;57203;42.672;23.334;2023-07-28T02:13:01;5.5;;;3.8;;
69917;SDS011;57203;42.672;23.334;2023-07-28T02:14:01;4.2;;;4.0;;
69917;SDS011;57203;42.672;23.334;2023-07-28T02:15:01;4.7;;;3.6;;
69917;SDS011;57203;42.672;23.334;2023-07-28T02:17:02;4.0;;;3.5;;
69917;SDS011;57203;42.672;23.334;2023-07-28T02:18:02;4.4;;;3.7;;
69917;SDS011;57203;42.672;23.334;2023-07-28T02:20:03;4.0;;;2.6;;
69917;SDS011;57203;42.672;23.334;2023-07-28T02:21:03;3.3;;;3.1;;
69917;SDS011;57203;42.672;23.334;2023-07-28T02:25:04;3.4;;;3.3;;
69917;SDS011;57203;42.672;23.334;2023-07-28T02:26:04;3.7;;;3.4;;
69917;SDS011;57203;42.672;23.334;2023-07-28T02:28:04;5.0;;;3.5;;
69917;SDS011;57203;42.672;23.334;2023-07-28T02:29:04;4.2;;;3.2;;
69917;SDS011;57203;42.672;23.334;2023-07-28T02:30:05;3.5;;;3.1;;
69917;SDS011;57203;42.672;23.334;2023-07-28T02:31:05;5.7;;;3.4;;
69917;SDS011;57203;42.672;23.334;2023-07-28T02:32:06;5.7;;;3.3;;
69917;SDS011;57203;42.672;23.334;2023-07-28T02:33:05;4.2;;;3.4;;
69917;SDS011;57203;42.672;23.334;2023-07-28T02:34:05;3.5;;;3.2;;
69917;SDS011;57203;42.672;23.334;2023-07-28T02:36:06;4.0;;;3.0;;
69917;SDS011;57203;42.672;23.334;2023-07-28T02:37:06;4.7;;;3.3;;
69917;SDS011;57203;42.672;23.334;2023-07-28T02:38:06;4.7;;;3.2;;
69917;SDS011;57203;42.672;23.334;2023-07-28T02:40:07;3.5;;;3.5;;
69917;SDS011;57203;42.672;23.334;2023-07-28T02:41:07;4.0;;;2.9;;
69917;SDS011;57203;42.672;23.334;2023-07-28T02:42:07;3.2;;;3.0;;
69917;SDS011;57203;42.672;23.334;2023-07-28T02:43:07;3.8;;;3.2;;
69917;SDS011;57203;42.672;23.334;2023-07-28T02:44:07;3.8;;;3.1;;
69917;SDS011;57203;42.672;23.334;2023-07-28T02:45:08;4.2;;;3.4;;
69917;SDS011;57203;42.672;23.334;2023-07-28T02:46:08;5.4;;;3.0;;
69917;SDS011;57203;42.672;23.334;2023-07-28T02:47:08;5.0;;;3.3;;
69917;SDS011;57203;42.672;23.334;2023-07-28T02:48:08;3.7;;;3.4;;
69917;SDS011;57203;42.672;23.334;2023-07-28T02:49:09;4.1;;;2.9;;
69917;SDS011;57203;42.672;23.334;2023-07-28T02:51:09;4.0;;;3.4;;
69917;SDS011;57203;42.672;23.334;2023-07-28T02:52:09;4.5;;;3.0;;
69917;SDS011;57203;42.672;23.334;2023-07-28T02:53:09;4.2;;;3.1;;
69917;SDS011;57203;42.672;23.334;2023-07-28T02:54:10;4.2;;;3.3;;
69917;SDS011;57203;42.672;23.334;2023-07-28T02:55:10;3.7;;;3.6;;
69917;SDS011;57203;42.672;23.334;2023-07-28T02:56:10;4.0;;;3.5;;
69917;SDS011;57203;42.672;23.334;2023-07-28T02:57:10;4.1;;;2.9;;
69917;SDS011;57203;42.672;23.334;2023-07-28T02:58:11;4.0;;;3.2;;
69917;SDS011;57203;42.672;23.334;2023-07-28T02:59:11;4.8;;;3.4;;
69917;SDS011;57203;42.672;23.334;2023-07-28T03:00:11;3.8;;;2.8;;
69917;SDS011;57203;42.672;23.334;2023-07-28T03:01:11;3.7;;;3.4;;
69917;SDS011;57203;42.672;23.334;2023-07-28T03:02:11;3.7;;;3.6;;
69917;SDS011;57203;42.672;23.334;2023-07-28T03:03:12;5.3;;;3.5;;
69917;SDS011;57203;42.672;23.334;2023-07-28T03:04:12;5.1;;;3.3;;
69917;SDS011;57203;42.672;23.334;2023-07-28T03:05:12;4.4;;;3.4;;
69917;SDS011;57203;42.672;23.334;2023-07-28T03:06:12;4.4;;;3.1;;
69917;SDS011;57203;42.672;23.334;2023-07-28T03:07:12;3.4;;;3.7;;
69917;SDS011;57203;42.672;23.334;2023-07-28T03:08:13;4.2;;;3.4;;
69917;SDS011;57203;42.672;23.334;2023-07-28T03:09:13;5.0;;;4.2;;
69917;SDS011;57203;42.672;23.334;2023-07-28T03:10:13;5.2;;;4.7;;
69917;SDS011;57203;42.672;23.334;2023-07-28T03:12:13;5.2;;;4.2;;
69917;SDS011;57203;42.672;23.334;2023-07-28T03:13:14;5.9;;;3.9;;
69917;SDS011;57203;42.672;23.334;2023-07-28T03:14:14;4.5;;;3.8;;
69917;SDS011;57203;42.672;23.334;2023-07-28T03:15:14;4.6;;;4.1;;
69917;SDS011;57203;42.672;23.334;2023-07-28T03:16:14;5.9;;;4.4;;
69917;SDS011;57203;42.672;23.334;2023-07-28T03:17:15;5.7;;;4.5;;
69917;SDS011;57203;42.672;23.334;2023-07-28T03:18:15;6.5;;;4.4;;
69917;SDS011;57203;42.672;23.334;2023-07-28T03:19:15;5.7;;;4.3;;
69917;SDS011;57203;42.672;23.334;2023-07-28T03:20:15;6.7;;;4.6;;
69917;SDS011;57203;42.672;23.334;2023-07-28T03:21:15;6.4;;;4.4;;
69917;SDS011;57203;42.672;23.334;2023-07-28T03:22:16;4.5;;;4.1;;
69917;SDS011;57203;42.672;23.334;2023-07-28T03:23:16;4.5;;;4.4;;
69917;SDS011;57203;42.672;23.334;2023-07-28T03:24:16;6.0;;;4.3;;
69917;SDS011;57203;42.672;23.334;2023-07-28T03:25:16;6.7;;;3.9;;
69917;SDS011;57203;42.672;23.334;2023-07-28T03:26:16;4.3;;;4.2;;
69917;SDS011;57203;42.672;23.334;2023-07-28T03:27:17;4.8;;;4.3;;
69917;SDS011;57203;42.672;23.334;2023-07-28T03:28:17;5.0;;;4.6;;
69917;SDS011;57203;42.672;23.334;2023-07-28T03:29:17;5.0;;;4.4;;
69917;SDS011;57203;42.672;23.334;2023-07-28T03:31:18;5.2;;;4.6;;
69917;SDS011;57203;42.672;23.334;2023-07-28T03:32:18;6.3;;;4.7;;
69917;SDS011;57203;42.672;23.334;2023-07-28T03:34:18;7.8;;;4.5;;
69917;SDS011;57203;42.672;23.334;2023-07-28T03:35:18;6.3;;;4.6;;
69917;SDS011;57203;42.672;23.334;2023-07-28T03:36:19;6.3;;;4.5;;
69917;SDS011;57203;42.672;23.334;2023-07-28T03:37:19;5.4;;;4.4;;
69917;SDS011;57203;42.672;23.334;2023-07-28T03:38:19;5.3;;;4.1;;
69917;SDS011;57203;42.672;23.334;2023-07-28T03:39:19;5.0;;;4.7;;
69917;SDS011;57203;42.672;23.334;2023-07-28T03:40:19;5.2;;;4.2;;
69917;SDS011;57203;42.672;23.334;2023-07-28T03:41:20;4.7;;;4.9;;
69917;SDS011;57203;42.672;23.334;2023-07-28T03:42:20;5.4;;;5.2;;
69917;SDS011;57203;42.672;23.334;2023-07-28T03:43:20;6.9;;;4.9;;
69917;SDS011;57203;42.672;23.334;2023-07-28T03:44:20;5.4;;;4.7;;
69917;SDS011;57203;42.672;23.334;2023-07-28T03:45:21;5.1;;;4.3;;
69917;SDS011;57203;42.672;23.334;2023-07-28T03:46:21;5.1;;;4.5;;
69917;SDS011;57203;42.672;23.334;2023-07-28T03:47:21;6.3;;;4.6;;
69917;SDS011;57203;42.672;23.334;2023-07-28T03:48:21;6.6;;;4.8;;
69917;SDS011;57203;42.672;23.334;2023-07-28T03:49:21;7.2;;;4.5;;
69917;SDS011;57203;42.672;23.334;2023-07-28T03:51:22;5.8;;;4.3;;
69917;SDS011;57203;42.672;23.334;2023-07-28T03:52:22;6.2;;;4.4;;
69917;SDS011;57203;42.672;23.334;2023-07-28T03:53:22;4.9;;;4.1;;
69917;SDS011;57203;42.672;23.334;2023-07-28T03:54:22;5.9;;;4.2;;
69917;SDS011;57203;42.672;23.334;2023-07-28T03:55:23;4.4;;;4.0;;
69917;SDS011;57203;42.672;23.334;2023-07-28T03:56:23;5.0;;;3.9;;
69917;SDS011;57203;42.672;23.334;2023-07-28T03:57:23;5.0;;;3.7;;
69917;SDS011;57203;42.672;23.334;2023-07-28T03:58:23;6.2;;;4.3;;
69917;SDS011;57203;42.672;23.334;2023-07-28T03:59:24;6.6;;;3.6;;
69917;SDS011;57203;42.672;23.334;2023-07-28T04:00:24;6.4;;;3.9;;
69917;SDS011;57203;42.672;23.334;2023-07-28T04:01:24;5.4;;;3.7;;
69917;SDS011;57203;42.672;23.334;2023-07-28T04:02:24;4.5;;;3.8;;
69917;SDS011;57203;42.672;23.334;2023-07-28T04:03:24;4.9;;;4.1;;
69917;SDS011;57203;42.672;23.334;2023-07-28T04:04:25;6.1;;;4.0;;
69917;SDS011;57203;42.672;23.334;2023-07-28T04:08:25;5.4;;;4.0;;
69917;SDS011;57203;42.672;23.334;2023-07-28T04:09:26;4.4;;;4.1;;
69917;SDS011;57203;42.672;23.334;2023-07-28T04:11:26;6.2;;;4.2;;
69917;SDS011;57203;42.672;23.334;2023-07-28T04:12:26;6.1;;;4.0;;
69917;SDS011;57203;42.672;23.334;2023-07-28T04:14:27;5.0;;;3.6;;
69917;SDS011;57203;42.672;23.334;2023-07-28T04:15:27;5.0;;;4.3;;
69917;SDS011;57203;42.672;23.334;2023-07-28T04:16:27;5.7;;;4.4;;
69917;SDS011;57203;42.672;23.334;2023-07-28T04:17:27;5.8;;;4.2;;
69917;SDS011;57203;42.672;23.334;2023-07-28T04:18:28;5.7;;;4.1;;
69917;SDS011;57203;42.672;23.334;2023-07-28T04:19:28;6.1;;;4.2;;
69917;SDS011;57203;42.672;23.334;2023-07-28T04:20:28;7.9;;;4.6;;
69917;SDS011;57203;42.672;23.334;2023-07-28T04:21:28;7.9;;;4.3;;
69917;SDS011;57203;42.672;23.334;2023-07-28T04:22:29;5.9;;;4.6;;
69917;SDS011;57203;42.672;23.334;2023-07-28T04:23:29;6.6;;;5.0;;
69917;SDS011;57203;42.672;23.334;2023-07-28T04:24:29;7.4;;;4.8;;
69917;SDS011;57203;42.672;23.334;2023-07-28T04:25:29;5.6;;;4.5;;
69917;SDS011;57203;42.672;23.334;2023-07-28T04:26:30;5.0;;;4.4;;
69917;SDS011;57203;42.672;23.334;2023-07-28T04:27:30;5.0;;;4.8;;
69917;SDS011;57203;42.672;23.334;2023-07-28T04:29:30;5.1;;;4.6;;
69917;SDS011;57203;42.672;23.334;2023-07-28T04:30:30;5.1;;;4.7;;
69917;SDS011;57203;42.672;23.334;2023-07-28T04:31:31;7.3;;;4.9;;
69917;SDS011;57203;42.672;23.334;2023-07-28T04:32:31;5.9;;;4.8;;
69917;SDS011;57203;42.672;23.334;2023-07-28T04:33:31;7.2;;;4.7;;
69917;SDS011;57203;42.672;23.334;2023-07-28T04:35:31;6.7;;;4.8;;
69917;SDS011;57203;42.672;23.334;2023-07-28T04:37:32;6.0;;;4.5;;
69917;SDS011;57203;42.672;23.334;2023-07-28T04:38:32;6.6;;;4.6;;
69917;SDS011;57203;42.672;23.334;2023-07-28T04:39:32;6.2;;;4.8;;
69917;SDS011;57203;42.672;23.334;2023-07-28T04:40:32;6.2;;;4.1;;
69917;SDS011;57203;42.672;23.334;2023-07-28T04:41:33;6.6;;;4.5;;
69917;SDS011;57203;42.672;23.334;2023-07-28T04:42:33;6.6;;;4.2;;
69917;SDS011;57203;42.672;23.334;2023-07-28T04:43:33;4.7;;;4.8;;
69917;SDS011;57203;42.672;23.334;2023-07-28T04:44:33;6.2;;;4.2;;
69917;SDS011;57203;42.672;23.334;2023-07-28T04:45:34;5.7;;;4.7;;
69917;SDS011;57203;42.672;23.334;2023-07-28T04:46:34;5.7;;;4.4;;
69917;SDS011;57203;42.672;23.334;2023-07-28T04:47:34;5.8;;;4.3;;
69917;SDS011;57203;42.672;23.334;2023-07-28T04:48:34;5.8;;;5.0;;
69917;SDS011;57203;42.672;23.334;2023-07-28T04:49:35;6.7;;;5.1;;
69917;SDS011;57203;42.672;23.334;2023-07-28T04:50:35;5.7;;;4.8;;
69917;SDS011;57203;42.672;23.334;2023-07-28T04:52:35;5.3;;;4.7;;
69917;SDS011;57203;42.672;23.334;2023-07-28T04:53:35;5.3;;;4.5;;
69917;SDS011;57203;42.672;23.334;2023-07-28T04:54:36;8.9;;;4.7;;
69917;SDS011;57203;42.672;23.334;2023-07-28T04:55:36;8.9;;;4.1;;
69917;SDS011;57203;42.672;23.334;2023-07-28T04:56:36;7.8;;;4.7;;
69917;SDS011;57203;42.672;23.334;2023-07-28T04:57:36;5.2;;;4.9;;
69917;SDS011;57203;42.672;23.334;2023-07-28T04:58:37;5.8;;;4.2;;
69917;SDS011;57203;42.672;23.334;2023-07-28T05:00:37;7.7;;;4.3;;
69917;SDS011;57203;42.672;23.334;2023-07-28T05:01:37;5.4;;;4.1;;
69917;SDS011;57203;42.672;23.334;2023-07-28T05:02:38;5.4;;;4.3;;
69917;SDS011;57203;42.672;23.334;2023-07-28T05:03:38;5.2;;;4.7;;
69917;SDS011;57203;42.672;23.334;2023-07-28T05:04:38;6.0;;;4.2;;
69917;SDS011;57203;42.672;23.334;2023-07-28T05:05:38;6.1;;;4.4;;
69917;SDS011;57203;42.672;23.334;2023-07-28T05:06:38;6.1;;;4.2;;
69917;SDS011;57203;42.672;23.334;2023-07-28T05:07:39;6.1;;;4.1;;
69917;SDS011;57203;42.672;23.334;2023-07-28T05:08:39;7.9;;;3.9;;
69917;SDS011;57203;42.672;23.334;2023-07-28T05:09:39;6.3;;;4.1;;
69917;SDS011;57203;42.672;23.334;2023-07-28T05:10:40;5.8;;;4.3;;
69917;SDS011;57203;42.672;23.334;2023-07-28T05:11:39;5.3;;;3.6;;
69917;SDS011;57203;42.672;23.334;2023-07-28T05:12:40;5.5;;;4.1;;
69917;SDS011;57203;42.672;23.334;2023-07-28T05:15:40;6.0;;;3.8;;
69917;SDS011;57203;42.672;23.334;2023-07-28T05:16:41;4.7;;;3.9;;
69917;SDS011;57203;42.672;23.334;2023-07-28T05:17:41;4.7;;;4.1;;
69917;SDS011;57203;42.672;23.334;2023-07-28T05:18:41;5.9;;;4.0;;
69917;SDS011;57203;42.672;23.334;2023-07-28T05:19:41;5.4;;;4.5;;
69917;SDS011;57203;42.672;23.334;2023-07-28T05:20:42;5.0;;;3.8;;
69917;SDS011;57203;42.672;23.334;2023-07-28T05:21:42;4.9;;;4.5;;
69917;SDS011;57203;42.672;23.334;2023-07-28T05:22:42;6.0;;;3.9;;
69917;SDS011;57203;42.672;23.334;2023-07-28T05:23:42;4.4;;;4.0;;
69917;SDS011;57203;42.672;23.334;2023-07-28T05:24:42;5.4;;;4.4;;
69917;SDS011;57203;42.672;23.334;2023-07-28T05:25:43;5.2;;;4.2;;
69917;SDS011;57203;42.672;23.334;2023-07-28T05:26:43;5.2;;;4.3;;
69917;SDS011;57203;42.672;23.334;2023-07-28T05:27:43;7.7;;;4.4;;
69917;SDS011;57203;42.672;23.334;2023-07-28T05:28:43;9.4;;;4.0;;
69917;SDS011;57203;42.672;23.334;2023-07-28T05:29:44;5.8;;;4.3;;
69917;SDS011;57203;42.672;23.334;2023-07-28T05:30:44;6.1;;;4.6;;
69917;SDS011;57203;42.672;23.334;2023-07-28T05:31:44;5.3;;;4.4;;
69917;SDS011;57203;42.672;23.334;2023-07-28T05:32:44;5.5;;;4.5;;
69917;SDS011;57203;42.672;23.334;2023-07-28T05:33:45;7.0;;;3.9;;
69917;SDS011;57203;42.672;23.334;2023-07-28T05:34:45;6.0;;;4.2;;
69917;SDS011;57203;42.672;23.334;2023-07-28T05:35:45;5.2;;;4.3;;
69917;SDS011;57203;42.672;23.334;2023-07-28T05:36:45;9.3;;;4.2;;
69917;SDS011;57203;42.672;23.334;2023-07-28T05:37:45;9.2;;;4.4;;
69917;SDS011;57203;42.672;23.334;2023-07-28T05:38:46;6.8;;;4.3;;
69917;SDS011;57203;42.672;23.334;2023-07-28T05:39:46;4.8;;;4.2;;
69917;SDS011;57203;42.672;23.334;2023-07-28T05:40:46;7.1;;;4.0;;
69917;SDS011;57203;42.672;23.334;2023-07-28T05:41:46;6.4;;;3.9;;
69917;SDS011;57203;42.672;23.334;2023-07-28T05:42:47;5.2;;;3.8;;
69917;SDS011;57203;42.672;23.334;2023-07-28T05:43:47;5.9;;;3.7;;
69917;SDS011;57203;42.672;23.334;2023-07-28T05:44:47;5.6;;;3.6;;
69917;SDS011;57203;42.672;23.334;2023-07-28T05:45:47;4.7;;;4.0;;
69917;SDS011;57203;42.672;23.334;2023-07-28T05:46:48;7.3;;;3.5;;
69917;SDS011;57203;42.672;23.334;2023-07-28T05:47:48;8.4;;;3.6;;
69917;SDS011;57203;42.672;23.334;2023-07-28T05:48:48;6.1;;;3.3;;
69917;SDS011;57203;42.672;23.334;2023-07-28T05:49:48;4.3;;;3.7;;
69917;SDS011;57203;42.672;23.334;2023-07-28T05:50:49;6.1;;;3.6;;
69917;SDS011;57203;42.672;23.334;2023-07-28T05:51:49;6.1;;;3.7;;
69917;SDS011;57203;42.672;23.334;2023-07-28T05:52:49;7.1;;;3.9;;
69917;SDS011;57203;42.672;23.334;2023-07-28T05:53:49;7.5;;;4.2;;
69917;SDS011;57203;42.672;23.334;2023-07-28T05:54:49;7.5;;;4.0;;
69917;SDS011;57203;42.672;23.334;2023-07-28T05:55:50;8.6;;;4.4;;
69917;SDS011;57203;42.672;23.334;2023-07-28T05:56:50;8.6;;;3.5;;
69917;SDS011;57203;42.672;23.334;2023-07-28T05:57:50;4.9;;;3.9;;
69917;SDS011;57203;42.672;23.334;2023-07-28T05:58:50;6.0;;;3.7;;
69917;SDS011;57203;42.672;23.334;2023-07-28T05:59:51;6.9;;;3.6;;
69917;SDS011;57203;42.672;23.334;2023-07-28T06:00:51;5.3;;;3.9;;
69917;SDS011;57203;42.672;23.334;2023-07-28T06:02:52;5.4;;;4.0;;
69917;SDS011;57203;42.672;23.334;2023-07-28T06:03:52;6.8;;;4.1;;
69917;SDS011;57203;42.672;23.334;2023-07-28T06:04:52;6.8;;;3.8;;
69917;SDS011;57203;42.672;23.334;2023-07-28T06:05:52;8.5;;;3.9;;
69917;SDS011;57203;42.672;23.334;2023-07-28T06:06:52;8.5;;;4.2;;
69917;SDS011;57203;42.672;23.334;2023-07-28T06:07:53;5.7;;;4.1;;
69917;SDS011;57203;42.672;23.334;2023-07-28T06:08:53;6.6;;;4.0;;
69917;SDS011;57203;42.672;23.334;2023-07-28T06:10:53;6.6;;;4.1;;
69917;SDS011;57203;42.672;23.334;2023-07-28T06:11:54;5.5;;;4.2;;
69917;SDS011;57203;42.672;23.334;2023-07-28T06:12:54;5.5;;;4.0;;
69917;SDS011;57203;42.672;23.334;2023-07-28T06:13:54;6.2;;;4.1;;
69917;SDS011;57203;42.672;23.334;2023-07-28T06:14:54;6.3;;;4.2;;
69917;SDS011;57203;42.672;23.334;2023-07-28T06:15:55;6.3;;;4.6;;
69917;SDS011;57203;42.672;23.334;2023-07-28T06:16:55;7.8;;;4.1;;
69917;SDS011;57203;42.672;23.334;2023-07-28T06:17:55;6.6;;;4.5;;
69917;SDS011;57203;42.672;23.334;2023-07-28T06:19:56;9.5;;;4.4;;
69917;SDS011;57203;42.672;23.334;2023-07-28T06:20:56;9.5;;;4.2;;
69917;SDS011;57203;42.672;23.334;2023-07-28T06:21:56;6.6;;;4.7;;
69917;SDS011;57203;42.672;23.334;2023-07-28T06:22:56;6.6;;;4.3;;
69917;SDS011;57203;42.672;23.334;2023-07-28T06:23:56;7.9;;;3.9;;
69917;SDS011;57203;42.672;23.334;2023-07-28T06:24:57;7.8;;;4.6;;
69917;SDS011;57203;42.672;23.334;2023-07-28T06:25:57;7.4;;;4.5;;
69917;SDS011;57203;42.672;23.334;2023-07-28T06:26:57;6.5;;;4.4;;
69917;SDS011;57203;42.672;23.334;2023-07-28T06:27:57;6.5;;;4.3;;
69917;SDS011;57203;42.672;23.334;2023-07-28T06:28:58;6.9;;;4.5;;
69917;SDS011;57203;42.672;23.334;2023-07-28T06:29:58;6.8;;;4.7;;
69917;SDS011;57203;42.672;23.334;2023-07-28T06:30:58;6.4;;;4.3;;
69917;SDS011;57203;42.672;23.334;2023-07-28T06:31:58;6.2;;;4.5;;
69917;SDS011;57203;42.672;23.334;2023-07-28T06:32:59;5.4;;;4.1;;
69917;SDS011;57203;42.672;23.334;2023-07-28T06:33:59;6.9;;;4.8;;
69917;SDS011;57203;42.672;23.334;2023-07-28T06:34:59;7.8;;;4.1;;
69917;SDS011;57203;42.672;23.334;2023-07-28T06:35:59;8.0;;;4.0;;
69917;SDS011;57203;42.672;23.334;2023-07-28T06:37:00;5.6;;;4.3;;
69917;SDS011;57203;42.672;23.334;2023-07-28T06:38:00;6.4;;;4.1;;
69917;SDS011;57203;42.672;23.334;2023-07-28T06:40:00;5.2;;;4.2;;
69917;SDS011;57203;42.672;23.334;2023-07-28T06:41:01;6.3;;;4.8;;
69917;SDS011;57203;42.672;23.334;2023-07-28T06:42:01;5.6;;;4.3;;
69917;SDS011;57203;42.672;23.334;2023-07-28T06:44:01;7.8;;;4.5;;
69917;SDS011;57203;42.672;23.334;2023-07-28T06:45:02;6.4;;;4.2;;
69917;SDS011;57203;42.672;23.334;2023-07-28T06:46:02;6.4;;;4.1;;
69917;SDS011;57203;42.672;23.334;2023-07-28T06:47:02;5.2;;;3.8;;
69917;SDS011;57203;42.672;23.334;2023-07-28T06:48:03;6.2;;;4.2;;
69917;SDS011;57203;42.672;23.334;2023-07-28T06:49:03;5.9;;;3.8;;
69917;SDS011;57203;42.672;23.334;2023-07-28T06:51:03;6.4;;;3.9;;
69917;SDS011;57203;42.672;23.334;2023-07-28T06:52:04;5.8;;;4.0;;
69917;SDS011;57203;42.672;23.334;2023-07-28T06:53:04;4.4;;;3.9;;
69917;SDS011;57203;42.672;23.334;2023-07-28T06:55:04;7.4;;;3.8;;
69917;SDS011;57203;42.672;23.334;2023-07-28T06:56:04;6.2;;;4.0;;
69917;SDS011;57203;42.672;23.334;2023-07-28T06:57:05;5.7;;;3.8;;
69917;SDS011;57203;42.672;23.334;2023-07-28T06:58:05;5.7;;;3.6;;
69917;SDS011;57203;42.672;23.334;2023-07-28T06:59:05;6.1;;;4.5;;
69917;SDS011;57203;42.672;23.334;2023-07-28T07:00:06;5.3;;;3.6;;